createdAt,value
2023-02-12T00:00:08.447Z,20.45
2023-02-12T00:00:20.912Z,20.60
2023-02-12T00:00:33.488Z,21.00
2023-02-12T00:00:46.098Z,21.00
2023-02-12T00:00:58.036Z,21.40
2023-02-12T00:01:12.175Z,21.02
2023-02-12T00:01:25.274Z,20.35
2023-02-12T00:01:37.345Z,20.27
2023-02-12T00:01:49.370Z,19.98
2023-02-12T00:02:01.286Z,20.30
2023-02-12T00:02:13.224Z,20.52
2023-02-12T00:02:25.348Z,20.48
2023-02-12T00:02:37.440Z,20.50
2023-02-12T00:02:49.486Z,20.60
2023-02-12T00:03:01.402Z,20.58
2023-02-12T00:03:13.474Z,20.70
2023-02-12T00:03:25.616Z,20.52
2023-02-12T00:03:39.158Z,20.33
2023-02-12T00:03:51.537Z,20.15
2023-02-12T00:04:04.078Z,19.60
2023-02-12T00:04:16.524Z,19.90
2023-02-12T00:04:28.422Z,19.95
2023-02-12T00:04:40.480Z,20.08
2023-02-12T00:04:52.466Z,20.30
2023-02-12T00:05:04.685Z,20.17
2023-02-12T00:05:16.778Z,19.38
2023-02-12T00:05:29.022Z,18.70
2023-02-12T00:05:44.161Z,19.35
2023-02-12T00:06:00.806Z,20.27
2023-02-12T00:06:15.692Z,20.05
2023-02-12T00:06:27.920Z,20.30
2023-02-12T00:06:40.310Z,20.70
2023-02-12T00:06:52.209Z,20.90
2023-02-12T00:07:04.127Z,21.13
2023-02-12T00:07:16.201Z,20.88
2023-02-12T00:07:33.331Z,21.13
2023-02-12T00:07:45.316Z,20.90
2023-02-12T00:07:59.995Z,21.08
2023-02-12T00:08:12.080Z,21.10
2023-02-12T00:08:27.088Z,20.75
2023-02-12T00:08:42.709Z,20.70
2023-02-12T00:09:01.154Z,21.00
2023-02-12T00:09:13.054Z,21.35
2023-02-12T00:09:25.032Z,21.38
2023-02-12T00:09:37.473Z,21.60
2023-02-12T00:09:49.411Z,21.50
2023-02-12T00:10:01.619Z,21.27
2023-02-12T00:10:13.610Z,21.15
2023-02-12T00:10:25.570Z,21.13
2023-02-12T00:10:41.591Z,20.52
2023-02-12T00:10:53.559Z,20.20
2023-02-12T00:11:26.834Z,20.40
2023-02-12T00:11:38.816Z,20.88
2023-02-12T00:11:51.335Z,20.98
2023-02-12T00:12:03.686Z,20.95
2023-02-12T00:12:16.250Z,21.02
2023-02-12T00:12:28.162Z,21.05
2023-02-12T00:12:40.125Z,20.77
2023-02-12T00:12:54.258Z,20.80
2023-02-12T00:13:06.191Z,21.40
2023-02-12T00:13:18.102Z,21.73
2023-02-12T00:13:34.129Z,21.63
2023-02-12T00:13:46.092Z,20.15
2023-02-12T00:13:58.741Z,19.90
2023-02-12T00:14:10.680Z,20.42
2023-02-12T00:14:22.593Z,21.05
2023-02-12T00:14:34.802Z,21.13
2023-02-12T00:14:46.887Z,20.67
2023-02-12T00:14:58.827Z,20.15
2023-02-12T00:15:10.708Z,20.15
2023-02-12T00:15:22.791Z,20.08
2023-02-12T00:15:35.313Z,20.48
2023-02-12T00:15:47.354Z,20.30
2023-02-12T00:15:59.528Z,20.40
2023-02-12T00:16:14.868Z,20.10
2023-02-12T00:16:28.826Z,19.60
2023-02-12T00:16:40.883Z,19.63
2023-02-12T00:16:52.888Z,19.60
2023-02-12T00:17:04.869Z,19.88
2023-02-12T00:17:16.777Z,20.10
2023-02-12T00:17:28.744Z,20.60
2023-02-12T00:17:40.671Z,20.40
2023-02-12T00:17:52.570Z,20.60
2023-02-12T00:18:04.521Z,20.70
2023-02-12T00:18:16.500Z,20.33
2023-02-12T00:18:28.445Z,19.95
2023-02-12T00:18:40.759Z,20.42
2023-02-12T00:18:54.894Z,19.92
2023-02-12T00:19:06.823Z,20.00
2023-02-12T00:19:18.757Z,20.40
2023-02-12T00:19:31.014Z,21.02
2023-02-12T00:19:43.050Z,21.08
2023-02-12T00:19:54.934Z,20.92
2023-02-12T00:20:07.650Z,20.50
2023-02-12T00:20:19.584Z,20.85
2023-02-12T00:20:31.535Z,20.95
2023-02-12T00:20:43.529Z,20.85
2023-02-12T00:20:55.420Z,21.25
2023-02-12T00:21:10.528Z,21.02
2023-02-12T00:21:23.572Z,20.55
2023-02-12T00:21:38.541Z,21.02
2023-02-12T00:21:50.505Z,21.40
2023-02-12T00:22:02.586Z,20.83
2023-02-12T00:22:14.622Z,20.85
2023-02-12T00:22:27.925Z,20.73
2023-02-12T00:22:39.826Z,21.02
2023-02-12T00:22:51.790Z,21.50
2023-02-12T00:23:05.103Z,21.23
2023-02-12T00:23:17.400Z,20.88
2023-02-12T00:23:29.393Z,20.35
2023-02-12T00:23:41.711Z,19.85
2023-02-12T00:23:53.962Z,20.17
2023-02-12T00:24:06.197Z,20.67
2023-02-12T00:24:18.110Z,20.52
2023-02-12T00:24:30.029Z,19.95
2023-02-12T00:24:41.925Z,19.75
2023-02-12T00:24:56.708Z,20.27
2023-02-12T00:25:09.489Z,20.90
2023-02-12T00:25:21.481Z,20.60
2023-02-12T00:25:34.173Z,20.35
2023-02-12T00:25:46.131Z,20.25
2023-02-12T00:25:58.119Z,19.05
2023-02-12T00:26:12.559Z,18.92
2023-02-12T00:26:24.848Z,20.48
2023-02-12T00:26:36.791Z,21.17
2023-02-12T00:26:50.868Z,20.90
2023-02-12T00:27:02.784Z,20.20
2023-02-12T00:27:14.742Z,20.15
2023-02-12T00:27:26.799Z,20.17
2023-02-12T00:27:38.794Z,20.13
2023-02-12T00:27:50.751Z,20.38
2023-02-12T00:28:02.854Z,20.67
2023-02-12T00:28:14.814Z,20.60
2023-02-12T00:28:27.045Z,20.08
2023-02-12T00:28:39.464Z,20.25
2023-02-12T00:28:52.231Z,20.85
2023-02-12T00:29:04.206Z,20.70
2023-02-12T00:29:16.237Z,20.40
2023-02-12T00:29:28.170Z,20.42
2023-02-12T00:29:40.135Z,20.15
2023-02-12T00:29:52.111Z,20.98
2023-02-12T00:30:04.216Z,21.40
2023-02-12T00:30:16.389Z,21.00
2023-02-12T00:30:28.384Z,20.83
2023-02-12T00:30:40.444Z,20.95
2023-02-12T00:30:52.477Z,21.05
2023-02-12T00:31:13.685Z,20.88
2023-02-12T00:31:28.337Z,20.70
2023-02-12T00:31:40.625Z,20.40
2023-02-12T00:31:52.675Z,20.15
2023-02-12T00:32:04.741Z,20.58
2023-02-12T00:32:19.608Z,20.90
2023-02-12T00:32:31.587Z,21.55
2023-02-12T00:32:45.819Z,21.63
2023-02-12T00:32:57.730Z,21.20
2023-02-12T00:33:09.892Z,21.08
2023-02-12T00:33:21.865Z,20.90
2023-02-12T00:33:33.794Z,20.90
2023-02-12T00:33:45.942Z,20.52
2023-02-12T00:33:59.785Z,20.83
2023-02-12T00:34:11.985Z,21.27
2023-02-12T00:34:24.027Z,20.60
2023-02-12T00:34:35.928Z,20.33
2023-02-12T00:34:48.211Z,20.20
2023-02-12T00:35:02.672Z,20.15
2023-02-12T00:35:14.819Z,20.20
2023-02-12T00:35:26.885Z,20.38
2023-02-12T00:35:38.894Z,19.73
2023-02-12T00:35:57.578Z,19.15
2023-02-12T00:36:13.303Z,19.58
2023-02-12T00:36:30.246Z,20.02
2023-02-12T00:36:44.626Z,20.42
2023-02-12T00:36:56.586Z,20.35
2023-02-12T00:37:08.570Z,19.50
2023-02-12T00:37:20.537Z,19.25
2023-02-12T00:37:32.555Z,19.45
2023-02-12T00:37:44.512Z,19.40
2023-02-12T00:37:56.475Z,19.25
2023-02-12T00:38:08.422Z,19.75
2023-02-12T00:38:20.336Z,19.83
2023-02-12T00:38:32.409Z,20.50
2023-02-12T00:38:45.405Z,20.30
2023-02-12T00:38:58.919Z,19.60
2023-02-12T00:39:11.334Z,19.48
2023-02-12T00:39:23.221Z,20.10
2023-02-12T00:39:37.942Z,20.15
2023-02-12T00:39:49.886Z,20.33
2023-02-12T00:40:02.420Z,20.40
2023-02-12T00:40:14.340Z,20.05
2023-02-12T00:40:26.425Z,19.83
2023-02-12T00:40:38.400Z,20.05
2023-02-12T00:40:50.832Z,19.67
2023-02-12T00:41:02.878Z,20.05
2023-02-12T00:41:15.489Z,20.98
2023-02-12T00:41:27.609Z,20.75
2023-02-12T00:41:42.172Z,20.70
2023-02-12T00:41:54.089Z,20.35
2023-02-12T00:42:06.618Z,19.98
2023-02-12T00:42:18.572Z,19.52
2023-02-12T00:42:30.546Z,19.70
2023-02-12T00:42:42.533Z,20.15
2023-02-12T00:42:54.511Z,20.27
2023-02-12T00:43:06.458Z,19.50
2023-02-12T00:43:18.472Z,19.33
2023-02-12T00:43:30.507Z,19.63
2023-02-12T00:43:42.731Z,20.42
2023-02-12T00:43:54.916Z,20.38
2023-02-12T00:44:06.988Z,19.77
2023-02-12T00:44:18.938Z,19.90
2023-02-12T00:44:31.146Z,20.10
2023-02-12T00:44:43.466Z,20.15
2023-02-12T00:44:55.410Z,19.92
2023-02-12T00:45:07.867Z,19.70
2023-02-12T00:45:20.044Z,19.02
2023-02-12T00:45:31.942Z,19.52
2023-02-12T00:45:47.229Z,20.50
2023-02-12T00:45:59.382Z,20.63
2023-02-12T00:46:11.819Z,20.25
2023-02-12T00:46:23.889Z,19.80
2023-02-12T00:46:38.536Z,19.02
2023-02-12T00:46:50.660Z,18.80
2023-02-12T00:47:03.034Z,19.40
2023-02-12T00:47:16.912Z,19.70
2023-02-12T00:47:28.833Z,19.90
2023-02-12T00:47:40.720Z,20.02
2023-02-12T00:47:52.695Z,20.50
2023-02-12T00:48:04.941Z,20.55
2023-02-12T00:48:17.033Z,19.75
2023-02-12T00:48:29.091Z,19.35
2023-02-12T00:48:41.295Z,19.50
2023-02-12T00:48:53.203Z,19.63
2023-02-12T00:49:05.152Z,19.90
2023-02-12T00:49:18.952Z,20.65
2023-02-12T00:49:35.205Z,20.08
2023-02-12T00:49:47.226Z,20.08
2023-02-12T00:49:59.194Z,20.60
2023-02-12T00:50:11.660Z,20.25
2023-02-12T00:50:23.652Z,20.10
2023-02-12T00:50:35.604Z,19.45
2023-02-12T00:50:48.410Z,18.85
2023-02-12T00:51:00.485Z,18.65
2023-02-12T00:51:12.889Z,19.50
2023-02-12T00:51:24.871Z,20.52
2023-02-12T00:51:36.832Z,20.45
2023-02-12T00:51:48.790Z,20.17
2023-02-12T00:52:04.770Z,19.15
2023-02-12T00:52:16.810Z,18.60
2023-02-12T00:52:28.772Z,19.67
2023-02-12T00:52:40.708Z,20.00
2023-02-12T00:52:52.771Z,19.35
2023-02-12T00:53:04.728Z,18.85
2023-02-12T00:53:16.818Z,19.70
2023-02-12T00:53:29.393Z,20.20
2023-02-12T00:53:41.434Z,20.20
2023-02-12T00:53:53.497Z,19.92
2023-02-12T00:54:05.683Z,20.17
2023-02-12T00:54:18.239Z,19.05
2023-02-12T00:54:31.466Z,19.45
2023-02-12T00:54:43.459Z,19.30
2023-02-12T00:54:55.433Z,18.83
2023-02-12T00:55:07.846Z,19.20
2023-02-12T00:55:19.812Z,19.48
2023-02-12T00:55:33.128Z,19.85
2023-02-12T00:55:45.448Z,20.35
2023-02-12T00:55:57.847Z,20.90
2023-02-12T00:56:10.077Z,20.50
2023-02-12T00:56:22.150Z,20.05
2023-02-12T00:56:34.058Z,20.30
2023-02-12T00:56:46.054Z,19.90
2023-02-12T00:56:58.988Z,19.37
2023-02-12T00:57:11.022Z,19.48
2023-02-12T00:57:23.046Z,20.35
2023-02-12T00:57:34.999Z,20.45
2023-02-12T00:57:47.038Z,20.42
2023-02-12T00:57:58.997Z,20.40
2023-02-12T00:58:11.265Z,20.58
2023-02-12T00:58:23.225Z,20.67
2023-02-12T00:58:35.307Z,20.65
2023-02-12T00:58:47.254Z,20.85
2023-02-12T00:58:59.169Z,20.67
2023-02-12T00:59:11.157Z,20.30
2023-02-12T00:59:24.087Z,20.42
2023-02-12T00:59:37.835Z,20.40
2023-02-12T00:59:49.812Z,19.40
2023-02-12T01:00:01.813Z,18.50
2023-02-12T01:00:15.382Z,19.17
2023-02-12T01:00:27.379Z,20.02
2023-02-12T01:00:39.343Z,20.40
2023-02-12T01:00:51.494Z,20.08
2023-02-12T01:01:03.754Z,20.17
2023-02-12T01:01:16.733Z,20.08
2023-02-12T01:01:28.705Z,19.63
2023-02-12T01:01:40.677Z,19.50
2023-02-12T01:01:55.165Z,19.20
2023-02-12T01:02:07.168Z,19.88
2023-02-12T01:02:19.148Z,20.63
2023-02-12T01:02:31.129Z,20.73
2023-02-12T01:02:43.069Z,20.77
2023-02-12T01:02:55.022Z,20.50
2023-02-12T01:03:07.129Z,20.63
2023-02-12T01:03:19.410Z,20.67
2023-02-12T01:03:31.405Z,20.95
2023-02-12T01:03:43.338Z,20.33
2023-02-12T01:03:55.306Z,20.00
2023-02-12T01:04:07.368Z,19.73
2023-02-12T01:04:19.400Z,20.13
2023-02-12T01:04:31.372Z,20.48
2023-02-12T01:04:43.422Z,19.60
2023-02-12T01:04:56.022Z,17.92
2023-02-12T01:05:13.512Z,18.23
2023-02-12T01:05:25.629Z,19.48
2023-02-12T01:05:37.603Z,19.98
2023-02-12T01:05:49.621Z,20.55
2023-02-12T01:06:01.634Z,20.58
2023-02-12T01:06:13.611Z,20.17
2023-02-12T01:06:25.694Z,20.58
2023-02-12T01:06:37.665Z,20.23
2023-02-12T01:06:49.678Z,19.50
2023-02-12T01:07:01.630Z,19.45
2023-02-12T01:07:13.539Z,19.73
2023-02-12T01:07:25.481Z,19.48
2023-02-12T01:07:38.556Z,19.33
2023-02-12T01:07:51.836Z,19.25
2023-02-12T01:08:04.471Z,19.52
2023-02-12T01:08:16.703Z,19.35
2023-02-12T01:08:28.717Z,19.40
2023-02-12T01:08:40.706Z,19.25
2023-02-12T01:08:53.046Z,19.40
2023-02-12T01:09:05.026Z,18.75
2023-02-12T01:09:16.988Z,18.70
2023-02-12T01:09:28.941Z,18.17
2023-02-12T01:09:40.995Z,18.10
2023-02-12T01:09:52.910Z,18.38
2023-02-12T01:10:09.296Z,18.40
2023-02-12T01:10:21.240Z,19.00
2023-02-12T01:10:33.644Z,18.83
2023-02-12T01:10:45.655Z,18.65
2023-02-12T01:11:03.305Z,18.35
2023-02-12T01:11:17.680Z,19.15
2023-02-12T01:11:29.639Z,19.80
2023-02-12T01:11:41.903Z,19.83
2023-02-12T01:11:53.842Z,19.33
2023-02-12T01:12:06.246Z,19.30
2023-02-12T01:12:18.145Z,19.40
2023-02-12T01:12:30.117Z,19.10
2023-02-12T01:12:42.092Z,19.65
2023-02-12T01:12:54.107Z,19.90
2023-02-12T01:13:06.093Z,20.13
2023-02-12T01:13:18.058Z,20.45
2023-02-12T01:13:30.901Z,20.48
2023-02-12T01:13:42.890Z,20.02
2023-02-12T01:13:56.265Z,20.33
2023-02-12T01:14:08.655Z,20.38
2023-02-12T01:14:20.687Z,20.17
2023-02-12T01:14:32.901Z,20.05
2023-02-12T01:14:44.779Z,19.95
2023-02-12T01:14:56.712Z,19.20
2023-02-12T01:15:10.369Z,18.83
2023-02-12T01:15:22.620Z,18.95
2023-02-12T01:15:34.541Z,19.55
2023-02-12T01:15:46.498Z,19.60
2023-02-12T01:16:10.662Z,19.98
2023-02-12T01:16:24.497Z,19.60
2023-02-12T01:16:36.937Z,19.35
2023-02-12T01:16:48.986Z,20.45
2023-02-12T01:17:00.906Z,20.98
2023-02-12T01:17:12.885Z,20.95
2023-02-12T01:17:24.860Z,19.63
2023-02-12T01:17:37.401Z,18.58
2023-02-12T01:17:53.137Z,19.13
2023-02-12T01:18:05.188Z,20.30
2023-02-12T01:18:17.191Z,19.90
2023-02-12T01:18:29.425Z,20.13
2023-02-12T01:18:41.495Z,19.80
2023-02-12T01:18:56.081Z,19.83
2023-02-12T01:19:08.300Z,19.95
2023-02-12T01:19:20.296Z,20.38
2023-02-12T01:19:32.239Z,20.17
2023-02-12T01:19:44.178Z,20.13
2023-02-12T01:19:59.424Z,20.35
2023-02-12T01:20:14.684Z,20.55
2023-02-12T01:20:27.858Z,20.10
2023-02-12T01:20:40.053Z,19.88
2023-02-12T01:20:51.970Z,19.85
2023-02-12T01:21:13.139Z,19.33
2023-02-12T01:21:29.152Z,20.00
2023-02-12T01:21:41.124Z,20.95
2023-02-12T01:21:53.107Z,20.42
2023-02-12T01:22:05.044Z,20.90
2023-02-12T01:22:17.214Z,21.17
2023-02-12T01:22:29.093Z,20.95
2023-02-12T01:22:41.065Z,20.42
2023-02-12T01:22:53.070Z,20.50
2023-02-12T01:23:06.903Z,20.67
2023-02-12T01:23:18.885Z,20.52
2023-02-12T01:23:30.833Z,20.00
2023-02-12T01:23:43.332Z,19.83
2023-02-12T01:23:55.370Z,19.65
2023-02-12T01:24:07.409Z,19.33
2023-02-12T01:24:19.329Z,19.33
2023-02-12T01:24:31.307Z,19.40
2023-02-12T01:24:43.257Z,19.27
2023-02-12T01:24:55.181Z,19.20
2023-02-12T01:25:07.993Z,20.10
2023-02-12T01:25:20.765Z,20.27
2023-02-12T01:25:32.828Z,20.50
2023-02-12T01:25:44.724Z,20.40
2023-02-12T01:25:58.834Z,20.42
2023-02-12T01:26:12.065Z,19.77
2023-02-12T01:26:24.866Z,19.35
2023-02-12T01:26:37.036Z,19.67
2023-02-12T01:26:49.058Z,19.90
2023-02-12T01:27:00.989Z,20.20
2023-02-12T01:27:12.940Z,20.42
2023-02-12T01:27:25.029Z,20.30
2023-02-12T01:27:37.132Z,20.67
2023-02-12T01:27:49.101Z,20.95
2023-02-12T01:28:01.069Z,20.98
2023-02-12T01:28:13.023Z,20.50
2023-02-12T01:28:25.043Z,20.08
2023-02-12T01:28:38.593Z,20.08
2023-02-12T01:28:53.349Z,19.85
2023-02-12T01:29:08.674Z,19.45
2023-02-12T01:29:20.588Z,20.25
2023-02-12T01:29:32.675Z,20.30
2023-02-12T01:29:45.743Z,20.27
2023-02-12T01:29:57.682Z,20.33
2023-02-12T01:30:12.062Z,20.40
2023-02-12T01:30:24.817Z,19.95
2023-02-12T01:30:36.753Z,19.95
2023-02-12T01:30:48.925Z,20.00
2023-02-12T01:31:01.082Z,19.88
2023-02-12T01:31:18.978Z,19.83
2023-02-12T01:31:34.103Z,18.80
2023-02-12T01:31:46.484Z,18.70
2023-02-12T01:31:58.707Z,19.50
2023-02-12T01:32:11.793Z,19.35
2023-02-12T01:32:23.785Z,19.52
2023-02-12T01:32:35.836Z,20.05
2023-02-12T01:32:47.822Z,20.30
2023-02-12T01:33:02.546Z,19.98
2023-02-12T01:33:14.533Z,19.67
2023-02-12T01:33:26.463Z,20.10
2023-02-12T01:33:40.870Z,20.20
2023-02-12T01:33:55.369Z,20.00
2023-02-12T01:34:08.195Z,20.10
2023-02-12T01:34:20.172Z,20.33
2023-02-12T01:34:32.133Z,20.58
2023-02-12T01:34:44.141Z,20.27
2023-02-12T01:34:56.099Z,20.50
2023-02-12T01:35:09.818Z,20.85
2023-02-12T01:35:21.737Z,21.20
2023-02-12T01:35:33.779Z,20.83
2023-02-12T01:35:45.757Z,20.20
2023-02-12T01:35:57.667Z,20.08
2023-02-12T01:36:10.869Z,20.05
2023-02-12T01:36:23.672Z,20.20
2023-02-12T01:36:36.065Z,20.08
2023-02-12T01:36:47.979Z,20.20
2023-02-12T01:36:59.921Z,20.38
2023-02-12T01:37:11.895Z,20.30
2023-02-12T01:37:23.853Z,20.73
2023-02-12T01:37:37.949Z,20.70
2023-02-12T01:37:49.890Z,21.10
2023-02-12T01:38:01.829Z,21.52
2023-02-12T01:38:13.795Z,22.52
2023-02-12T01:38:25.722Z,22.15
2023-02-12T01:38:37.696Z,21.48
2023-02-12T01:38:50.757Z,21.73
2023-02-12T01:39:04.253Z,21.65
2023-02-12T01:39:16.216Z,21.33
2023-02-12T01:39:28.272Z,20.77
2023-02-12T01:39:40.367Z,21.73
2023-02-12T01:39:52.473Z,22.75
2023-02-12T01:40:06.158Z,22.77
2023-02-12T01:40:18.724Z,22.05
2023-02-12T01:40:33.505Z,22.10
2023-02-12T01:40:45.438Z,24.20
2023-02-12T01:41:13.860Z,24.83
2023-02-12T01:41:29.755Z,24.35
2023-02-12T01:41:44.638Z,24.48
2023-02-12T01:41:56.574Z,23.15
2023-02-12T01:42:12.515Z,22.83
2023-02-12T01:42:24.450Z,24.27
2023-02-12T01:42:36.353Z,24.05
2023-02-12T01:42:48.242Z,23.48
2023-02-12T01:43:02.447Z,22.92
2023-02-12T01:43:14.417Z,22.20
2023-02-12T01:43:26.435Z,21.40
2023-02-12T01:43:39.493Z,21.02
2023-02-12T01:44:19.187Z,20.48
2023-02-12T01:44:33.103Z,21.58
2023-02-12T01:45:06.191Z,21.80
2023-02-12T01:45:40.046Z,21.10
2023-02-12T01:45:53.868Z,20.52
2023-02-12T01:46:07.424Z,20.60
2023-02-12T01:46:19.373Z,21.10
2023-02-12T01:46:31.407Z,21.58
2023-02-12T01:46:46.132Z,21.27
2023-02-12T01:47:00.157Z,21.40
2023-02-12T01:47:17.898Z,20.92
2023-02-12T01:47:29.870Z,20.15
2023-02-12T01:47:43.057Z,20.38
2023-02-12T01:47:54.978Z,20.92
2023-02-12T01:48:08.010Z,21.48
2023-02-12T01:48:23.599Z,21.15
2023-02-12T01:48:43.363Z,20.83
2023-02-12T01:48:55.416Z,21.73
2023-02-12T01:49:13.483Z,21.55
2023-02-12T01:49:51.528Z,20.88
2023-02-12T01:50:04.384Z,21.15
2023-02-12T01:50:20.039Z,21.35
2023-02-12T01:50:31.969Z,21.70
2023-02-12T01:50:48.441Z,21.70
2023-02-12T01:51:02.572Z,21.25
2023-02-12T01:51:19.545Z,20.63
2023-02-12T01:51:32.586Z,21.15
2023-02-12T01:51:46.647Z,22.13
2023-02-12T01:52:23.802Z,22.38
2023-02-12T01:52:38.078Z,22.50
2023-02-12T01:52:56.772Z,22.13
2023-02-12T01:53:09.594Z,22.42
2023-02-12T01:53:28.999Z,22.42
2023-02-12T01:53:46.868Z,22.27
2023-02-12T01:54:03.224Z,22.42
2023-02-12T01:54:19.702Z,22.00
2023-02-12T01:54:36.885Z,22.33
2023-02-12T01:54:50.329Z,23.10
2023-02-12T01:55:07.484Z,23.42
2023-02-12T01:55:20.753Z,24.13
2023-02-12T01:55:32.825Z,23.63
2023-02-12T01:55:44.756Z,23.40
2023-02-12T01:56:00.224Z,23.58
2023-02-12T01:56:12.580Z,24.17
2023-02-12T01:56:25.501Z,23.73
2023-02-12T01:56:38.291Z,23.80
2023-02-12T01:56:50.399Z,24.67
2023-02-12T01:57:04.755Z,24.73
2023-02-12T01:57:18.310Z,24.25
2023-02-12T01:57:33.692Z,24.38
2023-02-12T01:57:47.391Z,24.77
2023-02-12T01:57:59.392Z,25.23
2023-02-12T01:58:11.378Z,26.95
2023-02-12T01:58:26.771Z,27.73
2023-02-12T01:58:42.852Z,27.15
2023-02-12T01:58:57.655Z,27.27
2023-02-12T01:59:10.589Z,26.45
2023-02-12T01:59:24.200Z,24.58
2023-02-12T01:59:37.252Z,24.33
2023-02-12T01:59:53.030Z,26.30
2023-02-12T02:00:09.154Z,28.35
2023-02-12T02:00:23.521Z,27.67
2023-02-12T02:00:35.619Z,25.35
2023-02-12T02:00:56.412Z,25.38
2023-02-12T02:01:13.565Z,26.95
2023-02-12T02:01:28.625Z,25.92
2023-02-12T02:01:40.719Z,25.15
2023-02-12T02:01:53.943Z,25.55
2023-02-12T02:02:06.206Z,26.00
2023-02-12T02:02:18.277Z,25.65
2023-02-12T02:02:32.041Z,25.20
2023-02-12T02:02:49.092Z,25.10
2023-02-12T02:03:01.996Z,24.25
2023-02-12T02:03:14.165Z,23.77
2023-02-12T02:03:26.267Z,23.30
2023-02-12T02:03:40.733Z,23.05
2023-02-12T02:03:57.419Z,22.80
2023-02-12T02:04:15.955Z,23.05
2023-02-12T02:04:31.837Z,22.73
2023-02-12T02:04:48.581Z,22.23
2023-02-12T02:05:04.202Z,22.40
2023-02-12T02:05:24.645Z,22.25
2023-02-12T02:06:01.258Z,21.88
2023-02-12T02:06:20.382Z,23.92
2023-02-12T02:06:36.074Z,22.65
2023-02-12T02:06:56.804Z,22.33
2023-02-12T02:07:10.849Z,23.73
2023-02-12T02:07:22.914Z,23.23
2023-02-12T02:07:34.933Z,22.77
2023-02-12T02:07:46.858Z,22.17
2023-02-12T02:08:01.935Z,21.85
2023-02-12T02:08:14.355Z,21.05
2023-02-12T02:08:26.390Z,20.80
2023-02-12T02:08:41.405Z,20.95
2023-02-12T02:08:54.915Z,20.73
2023-02-12T02:09:07.279Z,21.25
2023-02-12T02:09:20.197Z,20.85
2023-02-12T02:09:36.071Z,20.52
2023-02-12T02:09:48.445Z,20.52
2023-02-12T02:10:01.694Z,20.83
2023-02-12T02:10:16.244Z,20.52
2023-02-12T02:10:32.742Z,20.75
2023-02-12T02:10:44.694Z,21.30
2023-02-12T02:10:56.653Z,20.70
2023-02-12T02:11:27.578Z,19.80
2023-02-12T02:11:57.918Z,20.70
2023-02-12T02:12:31.531Z,20.48
2023-02-12T02:13:02.069Z,21.23
2023-02-12T02:13:32.869Z,21.13
2023-02-12T02:14:03.231Z,22.75
2023-02-12T02:14:33.616Z,22.30
2023-02-12T02:14:47.260Z,23.75
2023-02-12T02:15:01.709Z,24.70
2023-02-12T02:15:13.685Z,23.88
2023-02-12T02:15:29.360Z,23.45
2023-02-12T02:15:47.026Z,24.70
2023-02-12T02:16:08.356Z,25.52
2023-02-12T02:16:26.199Z,26.10
2023-02-12T02:16:47.091Z,25.40
2023-02-12T02:17:24.012Z,26.35
2023-02-12T02:17:55.544Z,25.65
2023-02-12T02:18:31.317Z,24.80
2023-02-12T02:18:52.095Z,23.00
2023-02-12T02:19:37.942Z,20.90
2023-02-12T02:20:10.877Z,21.47
2023-02-12T02:20:47.514Z,21.42
2023-02-12T02:21:18.839Z,21.45
2023-02-12T02:22:02.495Z,20.20
2023-02-12T02:22:20.247Z,21.88
2023-02-12T02:22:57.775Z,21.65
2023-02-12T02:23:12.488Z,21.52
2023-02-12T02:23:45.589Z,21.75
2023-02-12T02:24:34.010Z,20.65
2023-02-12T02:25:07.411Z,21.35
2023-02-12T02:25:43.436Z,22.58
2023-02-12T02:26:32.454Z,21.23
2023-02-12T02:26:59.192Z,20.88
2023-02-12T02:27:21.038Z,20.13
2023-02-12T02:27:54.753Z,21.13
2023-02-12T02:28:28.739Z,21.40
2023-02-12T02:28:55.663Z,20.45
2023-02-12T02:29:32.302Z,20.45
2023-02-12T02:30:21.916Z,20.90
2023-02-12T02:31:01.065Z,20.67
2023-02-12T02:31:31.425Z,20.48
2023-02-12T02:32:04.972Z,19.90
2023-02-12T02:32:27.028Z,20.20
2023-02-12T02:33:06.692Z,20.48
2023-02-12T02:33:37.422Z,20.23
2023-02-12T02:34:01.379Z,20.75
2023-02-12T02:34:31.891Z,19.95
2023-02-12T02:35:09.658Z,20.90
2023-02-12T02:35:43.218Z,20.73
2023-02-12T02:36:10.944Z,21.50
2023-02-12T02:36:36.798Z,21.15
2023-02-12T02:37:00.165Z,21.58
2023-02-12T02:37:27.305Z,21.77
2023-02-12T02:37:56.169Z,21.55
2023-02-12T02:38:39.692Z,22.25
2023-02-12T02:39:07.853Z,22.50
2023-02-12T02:39:35.286Z,22.73
2023-02-12T02:40:06.013Z,22.48
2023-02-12T02:40:19.700Z,23.38
2023-02-12T02:40:40.186Z,23.42
2023-02-12T02:41:03.036Z,22.77
2023-02-12T02:41:30.535Z,22.88
2023-02-12T02:41:57.466Z,22.80
2023-02-12T02:42:17.311Z,22.33
2023-02-12T02:42:37.393Z,22.23
2023-02-12T02:43:03.482Z,22.25
2023-02-12T02:43:20.885Z,21.20
2023-02-12T02:43:43.225Z,20.88
2023-02-12T02:43:55.670Z,20.95
2023-02-12T02:44:17.145Z,21.05
2023-02-12T02:44:37.737Z,21.20
2023-02-12T02:44:54.619Z,19.50
2023-02-12T02:45:13.457Z,19.35
2023-02-12T02:45:49.013Z,20.60
2023-02-12T02:46:30.887Z,21.40
2023-02-12T02:46:52.492Z,21.17
2023-02-12T02:47:09.918Z,21.17
2023-02-12T02:47:31.165Z,21.92
2023-02-12T02:47:52.059Z,21.67
2023-02-12T02:48:13.591Z,21.52
2023-02-12T02:48:29.331Z,21.67
2023-02-12T02:48:53.680Z,21.17
2023-02-12T02:49:10.485Z,21.52
2023-02-12T02:49:37.024Z,22.58
2023-02-12T02:49:56.108Z,22.08
2023-02-12T02:50:13.181Z,22.05
2023-02-12T02:50:27.876Z,21.83
2023-02-12T02:50:47.045Z,22.35
2023-02-12T02:51:08.273Z,21.75
2023-02-12T02:51:33.206Z,21.98
2023-02-12T02:51:50.522Z,21.35
2023-02-12T02:52:11.490Z,21.38
2023-02-12T02:52:31.847Z,21.75
2023-02-12T02:52:52.463Z,21.05
2023-02-12T02:53:15.607Z,21.58
2023-02-12T02:53:34.981Z,21.48
2023-02-12T02:53:57.213Z,21.63
2023-02-12T02:54:17.393Z,22.23
2023-02-12T02:54:35.942Z,21.73
2023-02-12T02:54:53.247Z,21.05
2023-02-12T02:55:10.157Z,19.40
2023-02-12T02:55:25.613Z,19.38
2023-02-12T02:55:45.293Z,19.33
2023-02-12T02:56:00.124Z,20.15
2023-02-12T02:56:17.497Z,21.52
2023-02-12T02:56:30.473Z,21.40
2023-02-12T02:56:47.535Z,21.20
2023-02-12T02:57:07.304Z,21.08
2023-02-12T02:57:28.228Z,20.52
2023-02-12T02:57:47.177Z,20.60
2023-02-12T02:58:14.143Z,20.80
2023-02-12T02:58:31.244Z,21.00
2023-02-12T02:58:49.993Z,20.90
2023-02-12T02:59:09.699Z,20.27
2023-02-12T02:59:31.696Z,20.38
2023-02-12T02:59:50.045Z,20.50
2023-02-12T03:00:20.288Z,21.35
2023-02-12T03:00:39.848Z,19.85
2023-02-12T03:01:03.935Z,20.25
2023-02-12T03:01:24.122Z,20.38
2023-02-12T03:01:41.919Z,20.33
2023-02-12T03:02:00.901Z,20.42
2023-02-12T03:02:18.556Z,20.45
2023-02-12T03:02:37.301Z,19.65
2023-02-12T03:03:18.546Z,19.65
2023-02-12T03:03:37.065Z,20.95
2023-02-12T03:03:57.350Z,21.23
2023-02-12T03:04:15.285Z,21.20
2023-02-12T03:04:56.089Z,21.40
2023-02-12T03:05:14.516Z,21.08
2023-02-12T03:05:31.340Z,21.20
2023-02-12T03:05:47.512Z,21.33
2023-02-12T03:06:05.447Z,21.00
2023-02-12T03:06:27.932Z,21.90
2023-02-12T03:06:59.006Z,21.95
2023-02-12T03:07:22.033Z,21.05
2023-02-12T03:07:49.858Z,21.48
2023-02-12T03:08:18.038Z,21.35
2023-02-12T03:08:36.000Z,20.80
2023-02-12T03:08:56.276Z,21.02
2023-02-12T03:09:22.316Z,20.80
2023-02-12T03:09:40.049Z,21.75
2023-02-12T03:10:03.417Z,21.83
2023-02-12T03:10:29.578Z,20.98
2023-02-12T03:10:48.512Z,21.63
2023-02-12T03:11:08.770Z,21.80
2023-02-12T03:11:27.700Z,22.10
2023-02-12T03:11:40.489Z,22.00
2023-02-12T03:11:57.739Z,21.83
2023-02-12T03:12:16.507Z,20.92
2023-02-12T03:12:52.939Z,20.70
2023-02-12T03:13:12.217Z,21.02
2023-02-12T03:13:33.788Z,21.30
2023-02-12T03:13:51.397Z,21.20
2023-02-12T03:14:23.548Z,21.05
2023-02-12T03:14:40.997Z,20.65
2023-02-12T03:15:00.858Z,20.05
2023-02-12T03:15:21.286Z,20.48
2023-02-12T03:15:35.879Z,21.13
2023-02-12T03:15:54.419Z,21.42
2023-02-12T03:16:16.223Z,20.77
2023-02-12T03:16:32.609Z,21.15
2023-02-12T03:16:54.449Z,21.02
2023-02-12T03:17:17.750Z,20.95
2023-02-12T03:17:35.221Z,20.10
2023-02-12T03:17:50.063Z,20.30
2023-02-12T03:18:08.313Z,20.60
2023-02-12T03:18:27.860Z,20.58
2023-02-12T03:18:46.215Z,20.33
2023-02-12T03:19:14.223Z,20.23
2023-02-12T03:19:32.246Z,20.42
2023-02-12T03:19:54.473Z,20.30
2023-02-12T03:20:15.318Z,20.20
2023-02-12T03:20:32.181Z,19.50
2023-02-12T03:20:53.036Z,19.55
2023-02-12T03:21:12.695Z,19.88
2023-02-12T03:21:31.015Z,20.23
2023-02-12T03:21:48.900Z,20.08
2023-02-12T03:22:06.146Z,19.15